sensor_id;sensor_type;location;lat;lon;timestamp;temperature;humidity
43087;DHT22;28708;52.224;6.924;2023-11-21T00:02:20;8.50;99.90
43087;DHT22;28708;52.224;6.924;2023-11-21T00:04:48;8.50;99.90
43087;DHT22;28708;52.224;6.924;2023-11-21T00:07:13;8.60;99.90
43087;DHT22;28708;52.224;6.924;2023-11-21T00:09:40;8.50;99.90
43087;DHT22;28708;52.224;6.924;2023-11-21T00:12:07;8.50;99.90
43087;DHT22;28708;52.224;6.924;2023-11-21T00:14:36;8.40;99.90
43087;DHT22;28708;52.224;6.924;2023-11-21T00:17:02;8.50;99.90
43087;DHT22;28708;52.224;6.924;2023-11-21T00:19:28;8.50;99.90
43087;DHT22;28708;52.224;6.924;2023-11-21T00:21:53;8.40;99.90
43087;DHT22;28708;52.224;6.924;2023-11-21T00:24:19;8.30;99.90
43087;DHT22;28708;52.224;6.924;2023-11-21T00:26:45;8.30;99.90
43087;DHT22;28708;52.224;6.924;2023-11-21T00:29:11;8.30;99.90
43087;DHT22;28708;52.224;6.924;2023-11-21T00:31:36;8.40;99.90
43087;DHT22;28708;52.224;6.924;2023-11-21T00:34:03;8.30;99.90
43087;DHT22;28708;52.224;6.924;2023-11-21T00:36:32;8.40;99.90
43087;DHT22;28708;52.224;6.924;2023-11-21T00:38:58;8.40;99.90
43087;DHT22;28708;52.224;6.924;2023-11-21T00:41:25;8.40;99.90
43087;DHT22;28708;52.224;6.924;2023-11-21T00:43:53;8.40;99.90
43087;DHT22;28708;52.224;6.924;2023-11-21T00:46:19;8.40;99.90
43087;DHT22;28708;52.224;6.924;2023-11-21T00:48:45;8.40;99.90
43087;DHT22;28708;52.224;6.924;2023-11-21T00:51:10;8.40;99.90
43087;DHT22;28708;52.224;6.924;2023-11-21T00:53:36;8.40;99.90
43087;DHT22;28708;52.224;6.924;2023-11-21T00:56:02;8.40;99.90
43087;DHT22;28708;52.224;6.924;2023-11-21T00:58:28;8.40;99.90
43087;DHT22;28708;52.224;6.924;2023-11-21T01:00:54;8.40;99.90
43087;DHT22;28708;52.224;6.924;2023-11-21T01:03:19;8.50;99.90
43087;DHT22;28708;52.224;6.924;2023-11-21T01:05:45;8.50;99.90
43087;DHT22;28708;52.224;6.924;2023-11-21T01:08:11;8.40;99.90
43087;DHT22;28708;52.224;6.924;2023-11-21T01:10:37;8.40;99.90
43087;DHT22;28708;52.224;6.924;2023-11-21T01:13:03;8.40;99.90
43087;DHT22;28708;52.224;6.924;2023-11-21T01:15:33;8.50;99.90
43087;DHT22;28708;52.224;6.924;2023-11-21T01:17:59;8.40;99.90
43087;DHT22;28708;52.224;6.924;2023-11-21T01:20:24;8.50;99.90
43087;DHT22;28708;52.224;6.924;2023-11-21T01:22:50;8.50;99.90
43087;DHT22;28708;52.224;6.924;2023-11-21T01:25:16;8.50;99.90
43087;DHT22;28708;52.224;6.924;2023-11-21T01:27:42;8.50;99.90
43087;DHT22;28708;52.224;6.924;2023-11-21T01:30:09;8.50;99.90
43087;DHT22;28708;52.224;6.924;2023-11-21T01:32:37;8.50;99.90
43087;DHT22;28708;52.224;6.924;2023-11-21T01:35:03;8.60;99.90
43087;DHT22;28708;52.224;6.924;2023-11-21T01:37:31;8.60;99.90
43087;DHT22;28708;52.224;6.924;2023-11-21T01:39:58;8.40;99.90
43087;DHT22;28708;52.224;6.924;2023-11-21T01:42:24;8.50;99.90
43087;DHT22;28708;52.224;6.924;2023-11-21T01:44:50;8.50;99.90
43087;DHT22;28708;52.224;6.924;2023-11-21T01:47:16;8.50;99.90
43087;DHT22;28708;52.224;6.924;2023-11-21T01:49:46;8.60;99.90
43087;DHT22;28708;52.224;6.924;2023-11-21T01:52:13;8.60;99.90
43087;DHT22;28708;52.224;6.924;2023-11-21T01:54:39;8.50;99.90
43087;DHT22;28708;52.224;6.924;2023-11-21T01:57:07;8.60;99.90
43087;DHT22;28708;52.224;6.924;2023-11-21T01:59:37;8.60;99.90
43087;DHT22;28708;52.224;6.924;2023-11-21T02:02:07;8.50;99.90
43087;DHT22;28708;52.224;6.924;2023-11-21T02:04:34;8.60;99.90
43087;DHT22;28708;52.224;6.924;2023-11-21T02:07:00;8.50;99.90
43087;DHT22;28708;52.224;6.924;2023-11-21T02:09:27;8.60;99.90
43087;DHT22;28708;52.224;6.924;2023-11-21T02:11:53;8.60;99.90
43087;DHT22;28708;52.224;6.924;2023-11-21T02:14:27;8.60;99.90
43087;DHT22;28708;52.224;6.924;2023-11-21T02:16:54;8.50;99.90
43087;DHT22;28708;52.224;6.924;2023-11-21T02:19:21;8.50;99.90
43087;DHT22;28708;52.224;6.924;2023-11-21T02:21:54;8.60;99.90
43087;DHT22;28708;52.224;6.924;2023-11-21T02:24:21;8.60;99.90
43087;DHT22;28708;52.224;6.924;2023-11-21T02:26:48;8.60;99.90
43087;DHT22;28708;52.224;6.924;2023-11-21T02:29:14;8.60;99.90
43087;DHT22;28708;52.224;6.924;2023-11-21T02:31:42;8.60;99.90
43087;DHT22;28708;52.224;6.924;2023-11-21T02:34:18;8.60;99.90
43087;DHT22;28708;52.224;6.924;2023-11-21T02:36:47;8.60;99.90
43087;DHT22;28708;52.224;6.924;2023-11-21T02:39:15;8.60;99.90
43087;DHT22;28708;52.224;6.924;2023-11-21T02:41:42;8.60;99.90
43087;DHT22;28708;52.224;6.924;2023-11-21T02:44:09;8.60;99.90
43087;DHT22;28708;52.224;6.924;2023-11-21T02:46:35;8.60;99.90
43087;DHT22;28708;52.224;6.924;2023-11-21T02:49:04;8.60;99.90
43087;DHT22;28708;52.224;6.924;2023-11-21T02:51:32;8.60;99.90
43087;DHT22;28708;52.224;6.924;2023-11-21T02:53:58;8.50;99.90
43087;DHT22;28708;52.224;6.924;2023-11-21T02:56:25;8.50;99.90
43087;DHT22;28708;52.224;6.924;2023-11-21T02:58:56;8.50;99.90
43087;DHT22;28708;52.224;6.924;2023-11-21T03:01:23;8.50;99.90
43087;DHT22;28708;52.224;6.924;2023-11-21T03:03:53;8.50;99.90
43087;DHT22;28708;52.224;6.924;2023-11-21T03:06:19;8.50;99.90
43087;DHT22;28708;52.224;6.924;2023-11-21T03:08:45;8.50;99.90
43087;DHT22;28708;52.224;6.924;2023-11-21T03:11:11;8.50;99.90
43087;DHT22;28708;52.224;6.924;2023-11-21T03:13:41;8.50;99.90
43087;DHT22;28708;52.224;6.924;2023-11-21T03:16:09;8.50;99.90
43087;DHT22;28708;52.224;6.924;2023-11-21T03:18:34;8.50;99.90
43087;DHT22;28708;52.224;6.924;2023-11-21T03:21:00;8.50;99.90
43087;DHT22;28708;52.224;6.924;2023-11-21T03:23:25;8.50;99.90
43087;DHT22;28708;52.224;6.924;2023-11-21T03:25:51;8.60;99.90
43087;DHT22;28708;52.224;6.924;2023-11-21T03:28:17;8.50;99.90
43087;DHT22;28708;52.224;6.924;2023-11-21T03:30:43;8.50;99.90
43087;DHT22;28708;52.224;6.924;2023-11-21T03:33:09;8.50;99.90
43087;DHT22;28708;52.224;6.924;2023-11-21T03:35:35;8.50;99.90
43087;DHT22;28708;52.224;6.924;2023-11-21T03:38:00;8.50;99.90
43087;DHT22;28708;52.224;6.924;2023-11-21T03:40:28;8.50;99.90
43087;DHT22;28708;52.224;6.924;2023-11-21T03:42:54;8.50;99.90
43087;DHT22;28708;52.224;6.924;2023-11-21T03:45:20;8.50;99.90
43087;DHT22;28708;52.224;6.924;2023-11-21T03:47:46;8.50;99.90
43087;DHT22;28708;52.224;6.924;2023-11-21T03:50:12;8.50;99.90
43087;DHT22;28708;52.224;6.924;2023-11-21T03:52:37;8.60;99.90
43087;DHT22;28708;52.224;6.924;2023-11-21T03:55:04;8.50;99.90
43087;DHT22;28708;52.224;6.924;2023-11-21T03:57:30;8.50;99.90
43087;DHT22;28708;52.224;6.924;2023-11-21T03:59:55;8.50;99.90
43087;DHT22;28708;52.224;6.924;2023-11-21T04:02:21;8.60;99.90
43087;DHT22;28708;52.224;6.924;2023-11-21T04:04:46;8.60;99.90
43087;DHT22;28708;52.224;6.924;2023-11-21T04:07:12;8.60;99.90
43087;DHT22;28708;52.224;6.924;2023-11-21T04:09:39;8.60;99.90
43087;DHT22;28708;52.224;6.924;2023-11-21T04:12:05;8.50;99.90
43087;DHT22;28708;52.224;6.924;2023-11-21T04:14:31;8.50;99.90
43087;DHT22;28708;52.224;6.924;2023-11-21T04:16:57;8.50;99.90
43087;DHT22;28708;52.224;6.924;2023-11-21T04:19:22;8.50;99.90
43087;DHT22;28708;52.224;6.924;2023-11-21T04:21:48;8.60;99.90
43087;DHT22;28708;52.224;6.924;2023-11-21T04:24:17;8.50;99.90
43087;DHT22;28708;52.224;6.924;2023-11-21T04:26:46;8.50;99.90
43087;DHT22;28708;52.224;6.924;2023-11-21T04:29:12;8.60;99.90
43087;DHT22;28708;52.224;6.924;2023-11-21T04:31:37;8.50;99.90
43087;DHT22;28708;52.224;6.924;2023-11-21T04:34:03;8.50;99.90
43087;DHT22;28708;52.224;6.924;2023-11-21T04:36:30;8.40;99.90
43087;DHT22;28708;52.224;6.924;2023-11-21T04:38:58;8.50;99.90
43087;DHT22;28708;52.224;6.924;2023-11-21T04:41:24;8.50;99.90
43087;DHT22;28708;52.224;6.924;2023-11-21T04:43:49;8.40;99.90
43087;DHT22;28708;52.224;6.924;2023-11-21T04:46:15;8.40;99.90
43087;DHT22;28708;52.224;6.924;2023-11-21T04:48:40;8.40;99.90
43087;DHT22;28708;52.224;6.924;2023-11-21T04:51:06;8.40;99.90
43087;DHT22;28708;52.224;6.924;2023-11-21T04:53:32;8.30;99.90
43087;DHT22;28708;52.224;6.924;2023-11-21T04:55:58;8.30;99.90
43087;DHT22;28708;52.224;6.924;2023-11-21T04:58:25;8.40;99.90
43087;DHT22;28708;52.224;6.924;2023-11-21T05:00:51;8.40;99.90
43087;DHT22;28708;52.224;6.924;2023-11-21T05:03:17;8.40;99.90
43087;DHT22;28708;52.224;6.924;2023-11-21T05:05:42;8.40;99.90
43087;DHT22;28708;52.224;6.924;2023-11-21T05:08:08;8.30;99.90
43087;DHT22;28708;52.224;6.924;2023-11-21T05:10:33;8.40;99.90
43087;DHT22;28708;52.224;6.924;2023-11-21T05:12:59;8.30;99.90
43087;DHT22;28708;52.224;6.924;2023-11-21T05:15:25;8.30;99.90
43087;DHT22;28708;52.224;6.924;2023-11-21T05:17:52;8.30;99.90
43087;DHT22;28708;52.224;6.924;2023-11-21T05:20:20;8.30;99.90
43087;DHT22;28708;52.224;6.924;2023-11-21T05:22:50;8.30;99.90
43087;DHT22;28708;52.224;6.924;2023-11-21T05:25:16;8.30;99.90
43087;DHT22;28708;52.224;6.924;2023-11-21T05:27:48;8.30;99.90
43087;DHT22;28708;52.224;6.924;2023-11-21T05:30:14;8.40;99.90
43087;DHT22;28708;52.224;6.924;2023-11-21T05:32:40;8.30;99.90
43087;DHT22;28708;52.224;6.924;2023-11-21T05:35:09;8.30;99.90
43087;DHT22;28708;52.224;6.924;2023-11-21T05:37:38;8.30;99.90
43087;DHT22;28708;52.224;6.924;2023-11-21T05:40:07;8.30;99.90
43087;DHT22;28708;52.224;6.924;2023-11-21T05:42:34;8.30;99.90
43087;DHT22;28708;52.224;6.924;2023-11-21T05:45:00;8.40;99.90
43087;DHT22;28708;52.224;6.924;2023-11-21T05:47:44;8.40;99.90
43087;DHT22;28708;52.224;6.924;2023-11-21T05:50:12;8.40;99.90
43087;DHT22;28708;52.224;6.924;2023-11-21T05:52:41;8.30;99.90
43087;DHT22;28708;52.224;6.924;2023-11-21T05:55:08;8.40;99.90
43087;DHT22;28708;52.224;6.924;2023-11-21T05:57:35;8.40;99.90
43087;DHT22;28708;52.224;6.924;2023-11-21T06:00:08;8.40;99.90
43087;DHT22;28708;52.224;6.924;2023-11-21T06:02:41;8.30;99.90
43087;DHT22;28708;52.224;6.924;2023-11-21T06:05:07;8.30;99.90
43087;DHT22;28708;52.224;6.924;2023-11-21T06:07:33;8.20;99.90
43087;DHT22;28708;52.224;6.924;2023-11-21T06:10:01;8.20;99.90
43087;DHT22;28708;52.224;6.924;2023-11-21T06:12:28;8.30;99.90
43087;DHT22;28708;52.224;6.924;2023-11-21T06:14:54;8.20;99.90
43087;DHT22;28708;52.224;6.924;2023-11-21T06:17:21;8.10;99.90
43087;DHT22;28708;52.224;6.924;2023-11-21T06:19:47;8.10;99.90
43087;DHT22;28708;52.224;6.924;2023-11-21T06:22:12;8.10;99.90
43087;DHT22;28708;52.224;6.924;2023-11-21T06:24:38;8.10;99.90
43087;DHT22;28708;52.224;6.924;2023-11-21T06:27:04;8.10;99.90
43087;DHT22;28708;52.224;6.924;2023-11-21T06:29:30;8.10;99.90
43087;DHT22;28708;52.224;6.924;2023-11-21T06:31:57;8.30;99.90
43087;DHT22;28708;52.224;6.924;2023-11-21T06:34:24;8.40;99.90
43087;DHT22;28708;52.224;6.924;2023-11-21T06:36:49;8.40;99.90
43087;DHT22;28708;52.224;6.924;2023-11-21T06:39:15;8.40;99.90
43087;DHT22;28708;52.224;6.924;2023-11-21T06:41:43;8.40;99.90
43087;DHT22;28708;52.224;6.924;2023-11-21T06:44:09;8.40;99.90
43087;DHT22;28708;52.224;6.924;2023-11-21T06:46:34;8.30;99.90
43087;DHT22;28708;52.224;6.924;2023-11-21T06:49:00;8.30;99.90
43087;DHT22;28708;52.224;6.924;2023-11-21T06:51:26;8.30;99.90
43087;DHT22;28708;52.224;6.924;2023-11-21T06:53:52;8.30;99.90
43087;DHT22;28708;52.224;6.924;2023-11-21T06:56:19;8.30;99.90
43087;DHT22;28708;52.224;6.924;2023-11-21T06:58:47;8.30;99.90
43087;DHT22;28708;52.224;6.924;2023-11-21T07:01:14;8.30;99.90
43087;DHT22;28708;52.224;6.924;2023-11-21T07:03:40;8.30;99.90
43087;DHT22;28708;52.224;6.924;2023-11-21T07:06:07;8.30;99.90
43087;DHT22;28708;52.224;6.924;2023-11-21T07:08:33;8.40;99.90
43087;DHT22;28708;52.224;6.924;2023-11-21T07:10:58;8.50;99.90
43087;DHT22;28708;52.224;6.924;2023-11-21T07:13:24;8.50;99.90
43087;DHT22;28708;52.224;6.924;2023-11-21T07:15:51;8.50;99.90
43087;DHT22;28708;52.224;6.924;2023-11-21T07:18:17;8.50;99.90
43087;DHT22;28708;52.224;6.924;2023-11-21T07:20:43;8.50;99.90
43087;DHT22;28708;52.224;6.924;2023-11-21T07:23:09;8.50;99.90
43087;DHT22;28708;52.224;6.924;2023-11-21T07:25:34;8.50;99.90
43087;DHT22;28708;52.224;6.924;2023-11-21T07:28:00;8.50;99.90
43087;DHT22;28708;52.224;6.924;2023-11-21T07:30:26;8.40;99.90
43087;DHT22;28708;52.224;6.924;2023-11-21T07:32:52;8.50;99.90
43087;DHT22;28708;52.224;6.924;2023-11-21T07:35:18;8.60;99.90
43087;DHT22;28708;52.224;6.924;2023-11-21T07:37:43;8.60;99.90
43087;DHT22;28708;52.224;6.924;2023-11-21T07:40:09;8.70;99.90
43087;DHT22;28708;52.224;6.924;2023-11-21T07:42:37;8.70;99.90
43087;DHT22;28708;52.224;6.924;2023-11-21T07:45:05;8.70;99.90
43087;DHT22;28708;52.224;6.924;2023-11-21T07:47:32;8.80;99.90
43087;DHT22;28708;52.224;6.924;2023-11-21T07:50:00;8.90;99.90
43087;DHT22;28708;52.224;6.924;2023-11-21T07:52:26;8.90;99.90
43087;DHT22;28708;52.224;6.924;2023-11-21T07:54:52;8.90;99.90
43087;DHT22;28708;52.224;6.924;2023-11-21T07:57:17;8.90;99.90
43087;DHT22;28708;52.224;6.924;2023-11-21T07:59:43;8.90;99.90
43087;DHT22;28708;52.224;6.924;2023-11-21T08:02:09;8.90;99.90
43087;DHT22;28708;52.224;6.924;2023-11-21T08:04:35;9.00;99.90
43087;DHT22;28708;52.224;6.924;2023-11-21T08:07:01;9.00;99.90
43087;DHT22;28708;52.224;6.924;2023-11-21T08:09:27;9.00;99.90
43087;DHT22;28708;52.224;6.924;2023-11-21T08:11:53;9.00;99.90
43087;DHT22;28708;52.224;6.924;2023-11-21T08:14:19;9.10;99.90
43087;DHT22;28708;52.224;6.924;2023-11-21T08:16:46;9.00;99.90
43087;DHT22;28708;52.224;6.924;2023-11-21T08:19:11;8.90;99.90
43087;DHT22;28708;52.224;6.924;2023-11-21T08:21:37;9.00;99.90
43087;DHT22;28708;52.224;6.924;2023-11-21T08:24:06;9.00;99.90
43087;DHT22;28708;52.224;6.924;2023-11-21T08:26:31;9.00;99.90
43087;DHT22;28708;52.224;6.924;2023-11-21T08:28:57;9.10;99.90
43087;DHT22;28708;52.224;6.924;2023-11-21T08:31:26;9.20;99.90
43087;DHT22;28708;52.224;6.924;2023-11-21T08:33:52;9.00;99.90
43087;DHT22;28708;52.224;6.924;2023-11-21T08:36:21;9.00;99.90
43087;DHT22;28708;52.224;6.924;2023-11-21T08:38:48;9.10;99.90
43087;DHT22;28708;52.224;6.924;2023-11-21T08:41:14;9.10;99.90
43087;DHT22;28708;52.224;6.924;2023-11-21T08:43:41;9.10;99.90
43087;DHT22;28708;52.224;6.924;2023-11-21T08:46:07;9.10;99.90
43087;DHT22;28708;52.224;6.924;2023-11-21T08:48:37;9.00;99.90
43087;DHT22;28708;52.224;6.924;2023-11-21T08:51:03;9.20;99.90
43087;DHT22;28708;52.224;6.924;2023-11-21T08:53:30;9.20;99.90
43087;DHT22;28708;52.224;6.924;2023-11-21T08:55:56;9.20;99.90
43087;DHT22;28708;52.224;6.924;2023-11-21T08:58:22;9.20;99.90
43087;DHT22;28708;52.224;6.924;2023-11-21T09:00:48;9.20;99.90
43087;DHT22;28708;52.224;6.924;2023-11-21T09:03:13;9.20;99.90
43087;DHT22;28708;52.224;6.924;2023-11-21T09:05:39;9.30;99.90
43087;DHT22;28708;52.224;6.924;2023-11-21T09:08:06;9.30;99.90
43087;DHT22;28708;52.224;6.924;2023-11-21T09:10:33;9.30;99.90
43087;DHT22;28708;52.224;6.924;2023-11-21T09:13:01;9.40;99.90
43087;DHT22;28708;52.224;6.924;2023-11-21T09:15:27;9.50;99.90
43087;DHT22;28708;52.224;6.924;2023-11-21T09:17:53;9.40;99.90
43087;DHT22;28708;52.224;6.924;2023-11-21T09:20:19;9.40;99.90
43087;DHT22;28708;52.224;6.924;2023-11-21T09:22:48;9.40;99.90
43087;DHT22;28708;52.224;6.924;2023-11-21T09:25:15;9.40;99.90
43087;DHT22;28708;52.224;6.924;2023-11-21T09:27:41;9.50;99.90
43087;DHT22;28708;52.224;6.924;2023-11-21T09:30:07;9.50;99.90
43087;DHT22;28708;52.224;6.924;2023-11-21T09:32:37;9.50;99.90
43087;DHT22;28708;52.224;6.924;2023-11-21T09:35:04;9.60;99.90
43087;DHT22;28708;52.224;6.924;2023-11-21T09:37:31;9.60;99.90
43087;DHT22;28708;52.224;6.924;2023-11-21T09:39:57;9.50;99.90
43087;DHT22;28708;52.224;6.924;2023-11-21T09:42:32;9.60;99.90
43087;DHT22;28708;52.224;6.924;2023-11-21T09:45:24;9.60;99.90
43087;DHT22;28708;52.224;6.924;2023-11-21T09:47:52;9.60;99.90
43087;DHT22;28708;52.224;6.924;2023-11-21T09:50:20;9.60;99.90
43087;DHT22;28708;52.224;6.924;2023-11-21T09:52:55;9.60;99.90
43087;DHT22;28708;52.224;6.924;2023-11-21T09:55:25;9.60;99.90
43087;DHT22;28708;52.224;6.924;2023-11-21T09:57:53;9.60;99.90
43087;DHT22;28708;52.224;6.924;2023-11-21T10:00:21;9.60;99.90
43087;DHT22;28708;52.224;6.924;2023-11-21T10:02:49;9.60;99.90
43087;DHT22;28708;52.224;6.924;2023-11-21T10:05:16;9.60;99.90
43087;DHT22;28708;52.224;6.924;2023-11-21T10:07:46;9.70;99.90
43087;DHT22;28708;52.224;6.924;2023-11-21T10:10:13;9.70;99.90
43087;DHT22;28708;52.224;6.924;2023-11-21T10:12:43;9.70;99.90
43087;DHT22;28708;52.224;6.924;2023-11-21T10:15:11;9.70;99.90
43087;DHT22;28708;52.224;6.924;2023-11-21T10:17:41;9.70;99.90
43087;DHT22;28708;52.224;6.924;2023-11-21T10:20:11;9.70;99.90
43087;DHT22;28708;52.224;6.924;2023-11-21T10:22:40;9.70;99.90
43087;DHT22;28708;52.224;6.924;2023-11-21T10:25:07;9.80;99.90
43087;DHT22;28708;52.224;6.924;2023-11-21T10:27:34;9.80;99.90
43087;DHT22;28708;52.224;6.924;2023-11-21T10:30:05;9.80;99.90
43087;DHT22;28708;52.224;6.924;2023-11-21T10:32:30;9.90;99.90
43087;DHT22;28708;52.224;6.924;2023-11-21T10:34:59;9.90;99.90
43087;DHT22;28708;52.224;6.924;2023-11-21T10:37:35;10.00;99.90
43087;DHT22;28708;52.224;6.924;2023-11-21T10:40:01;10.00;99.90
43087;DHT22;28708;52.224;6.924;2023-11-21T10:42:28;10.10;99.90
43087;DHT22;28708;52.224;6.924;2023-11-21T10:44:54;10.10;99.90
43087;DHT22;28708;52.224;6.924;2023-11-21T10:47:20;10.00;99.90
43087;DHT22;28708;52.224;6.924;2023-11-21T10:49:51;10.00;99.90
43087;DHT22;28708;52.224;6.924;2023-11-21T10:52:21;10.00;99.90
43087;DHT22;28708;52.224;6.924;2023-11-21T10:54:48;10.00;99.90
43087;DHT22;28708;52.224;6.924;2023-11-21T10:57:18;10.10;99.90
43087;DHT22;28708;52.224;6.924;2023-11-21T10:59:47;10.10;99.90
43087;DHT22;28708;52.224;6.924;2023-11-21T11:02:23;10.10;99.90
43087;DHT22;28708;52.224;6.924;2023-11-21T11:04:52;10.10;99.90
43087;DHT22;28708;52.224;6.924;2023-11-21T11:07:17;10.10;99.90
43087;DHT22;28708;52.224;6.924;2023-11-21T11:09:46;10.00;99.90
43087;DHT22;28708;52.224;6.924;2023-11-21T11:12:12;10.00;99.90
43087;DHT22;28708;52.224;6.924;2023-11-21T11:14:41;10.00;99.90
43087;DHT22;28708;52.224;6.924;2023-11-21T11:17:07;9.90;99.90
43087;DHT22;28708;52.224;6.924;2023-11-21T11:19:34;9.90;99.90
43087;DHT22;28708;52.224;6.924;2023-11-21T11:22:29;9.90;99.90
43087;DHT22;28708;52.224;6.924;2023-11-21T11:27:48;9.90;99.90
43087;DHT22;28708;52.224;6.924;2023-11-21T11:30:32;9.80;99.90
43087;DHT22;28708;52.224;6.924;2023-11-21T11:38:34;9.90;99.90
43087;DHT22;28708;52.224;6.924;2023-11-21T11:41:05;9.80;99.90
43087;DHT22;28708;52.224;6.924;2023-11-21T11:43:32;9.90;99.90
43087;DHT22;28708;52.224;6.924;2023-11-21T11:46:03;9.90;99.90
43087;DHT22;28708;52.224;6.924;2023-11-21T11:48:29;9.80;99.90
43087;DHT22;28708;52.224;6.924;2023-11-21T11:51:02;9.80;99.90
43087;DHT22;28708;52.224;6.924;2023-11-21T11:53:47;9.80;99.90
43087;DHT22;28708;52.224;6.924;2023-11-21T11:56:33;9.70;99.90
43087;DHT22;28708;52.224;6.924;2023-11-21T11:59:04;9.70;99.90
43087;DHT22;28708;52.224;6.924;2023-11-21T12:01:32;9.70;99.90
43087;DHT22;28708;52.224;6.924;2023-11-21T12:06:52;9.70;99.90
43087;DHT22;28708;52.224;6.924;2023-11-21T12:09:19;9.60;99.90
43087;DHT22;28708;52.224;6.924;2023-11-21T12:11:47;9.50;99.90
43087;DHT22;28708;52.224;6.924;2023-11-21T12:14:14;9.40;99.90
43087;DHT22;28708;52.224;6.924;2023-11-21T12:16:40;9.40;99.90
43087;DHT22;28708;52.224;6.924;2023-11-21T12:19:06;9.30;99.90
43087;DHT22;28708;52.224;6.924;2023-11-21T12:21:32;9.20;99.90
43087;DHT22;28708;52.224;6.924;2023-11-21T12:23:58;9.20;99.90
43087;DHT22;28708;52.224;6.924;2023-11-21T12:26:24;9.20;99.90
43087;DHT22;28708;52.224;6.924;2023-11-21T12:28:56;9.20;99.90
43087;DHT22;28708;52.224;6.924;2023-11-21T12:31:24;9.20;99.90
43087;DHT22;28708;52.224;6.924;2023-11-21T12:33:50;9.10;99.90
43087;DHT22;28708;52.224;6.924;2023-11-21T12:36:16;9.20;99.90
43087;DHT22;28708;52.224;6.924;2023-11-21T12:38:42;9.20;99.90
43087;DHT22;28708;52.224;6.924;2023-11-21T12:41:09;9.30;99.90
43087;DHT22;28708;52.224;6.924;2023-11-21T12:43:35;9.30;99.90
43087;DHT22;28708;52.224;6.924;2023-11-21T12:46:08;9.40;99.90
43087;DHT22;28708;52.224;6.924;2023-11-21T12:48:39;9.40;99.90
43087;DHT22;28708;52.224;6.924;2023-11-21T12:51:08;9.40;99.90
43087;DHT22;28708;52.224;6.924;2023-11-21T12:53:35;9.30;99.90
43087;DHT22;28708;52.224;6.924;2023-11-21T12:56:09;9.40;99.90
43087;DHT22;28708;52.224;6.924;2023-11-21T12:58:38;9.40;99.90
43087;DHT22;28708;52.224;6.924;2023-11-21T13:01:07;9.30;99.90
43087;DHT22;28708;52.224;6.924;2023-11-21T13:03:37;9.30;99.90
43087;DHT22;28708;52.224;6.924;2023-11-21T13:06:04;9.30;99.90
43087;DHT22;28708;52.224;6.924;2023-11-21T13:08:30;9.30;99.90
43087;DHT22;28708;52.224;6.924;2023-11-21T13:10:58;9.20;99.90
43087;DHT22;28708;52.224;6.924;2023-11-21T13:13:25;9.00;99.90
43087;DHT22;28708;52.224;6.924;2023-11-21T13:15:54;9.00;99.90
43087;DHT22;28708;52.224;6.924;2023-11-21T13:18:27;8.90;99.90
43087;DHT22;28708;52.224;6.924;2023-11-21T13:20:58;8.90;99.90
43087;DHT22;28708;52.224;6.924;2023-11-21T13:23:24;9.00;99.90
43087;DHT22;28708;52.224;6.924;2023-11-21T13:25:50;9.00;99.90
43087;DHT22;28708;52.224;6.924;2023-11-21T13:28:16;8.90;99.90
43087;DHT22;28708;52.224;6.924;2023-11-21T13:30:43;8.90;99.90
43087;DHT22;28708;52.224;6.924;2023-11-21T13:33:10;8.90;99.90
43087;DHT22;28708;52.224;6.924;2023-11-21T13:35:43;8.90;99.90
43087;DHT22;28708;52.224;6.924;2023-11-21T13:38:16;8.80;99.90
43087;DHT22;28708;52.224;6.924;2023-11-21T13:40:52;8.80;99.90
43087;DHT22;28708;52.224;6.924;2023-11-21T13:43:25;8.80;99.90
43087;DHT22;28708;52.224;6.924;2023-11-21T13:45:52;8.80;99.90
43087;DHT22;28708;52.224;6.924;2023-11-21T13:48:25;8.70;99.90
43087;DHT22;28708;52.224;6.924;2023-11-21T13:50:58;8.70;99.90
43087;DHT22;28708;52.224;6.924;2023-11-21T13:53:26;8.70;99.90
43087;DHT22;28708;52.224;6.924;2023-11-21T13:55:53;8.70;99.90
43087;DHT22;28708;52.224;6.924;2023-11-21T13:58:26;8.70;99.90
43087;DHT22;28708;52.224;6.924;2023-11-21T14:01:07;8.70;99.90
43087;DHT22;28708;52.224;6.924;2023-11-21T14:03:42;8.80;99.90
43087;DHT22;28708;52.224;6.924;2023-11-21T14:06:17;8.90;99.90
43087;DHT22;28708;52.224;6.924;2023-11-21T14:08:50;8.80;99.90
43087;DHT22;28708;52.224;6.924;2023-11-21T14:11:16;8.80;99.90
43087;DHT22;28708;52.224;6.924;2023-11-21T14:13:47;8.80;99.90
43087;DHT22;28708;52.224;6.924;2023-11-21T14:16:14;8.70;99.90
43087;DHT22;28708;52.224;6.924;2023-11-21T14:18:40;8.70;99.90
43087;DHT22;28708;52.224;6.924;2023-11-21T14:21:18;8.60;99.90
43087;DHT22;28708;52.224;6.924;2023-11-21T14:23:44;8.60;99.90
43087;DHT22;28708;52.224;6.924;2023-11-21T14:26:11;8.60;99.90
43087;DHT22;28708;52.224;6.924;2023-11-21T14:28:39;8.60;99.90
43087;DHT22;28708;52.224;6.924;2023-11-21T14:31:05;8.60;99.90
43087;DHT22;28708;52.224;6.924;2023-11-21T14:33:30;8.50;99.90
43087;DHT22;28708;52.224;6.924;2023-11-21T14:35:56;8.60;99.90
43087;DHT22;28708;52.224;6.924;2023-11-21T14:38:23;8.60;99.90
43087;DHT22;28708;52.224;6.924;2023-11-21T14:40:48;8.60;99.90
43087;DHT22;28708;52.224;6.924;2023-11-21T14:43:15;8.60;99.90
43087;DHT22;28708;52.224;6.924;2023-11-21T14:45:41;8.50;99.90
43087;DHT22;28708;52.224;6.924;2023-11-21T14:48:07;8.50;99.90
43087;DHT22;28708;52.224;6.924;2023-11-21T14:50:42;8.50;99.90
43087;DHT22;28708;52.224;6.924;2023-11-21T14:53:11;8.50;99.90
43087;DHT22;28708;52.224;6.924;2023-11-21T14:55:38;8.50;99.90
43087;DHT22;28708;52.224;6.924;2023-11-21T14:58:22;8.50;99.90
43087;DHT22;28708;52.224;6.924;2023-11-21T15:01:00;8.40;99.90
43087;DHT22;28708;52.224;6.924;2023-11-21T15:03:28;8.40;99.90
43087;DHT22;28708;52.224;6.924;2023-11-21T15:05:57;8.40;99.90
43087;DHT22;28708;52.224;6.924;2023-11-21T15:08:23;8.40;99.90
43087;DHT22;28708;52.224;6.924;2023-11-21T15:10:56;8.40;99.90
43087;DHT22;28708;52.224;6.924;2023-11-21T15:13:22;8.30;99.90
43087;DHT22;28708;52.224;6.924;2023-11-21T15:15:53;8.30;99.90
43087;DHT22;28708;52.224;6.924;2023-11-21T15:18:21;8.30;99.90
43087;DHT22;28708;52.224;6.924;2023-11-21T15:20:47;8.30;99.90
43087;DHT22;28708;52.224;6.924;2023-11-21T15:23:13;8.30;99.90
43087;DHT22;28708;52.224;6.924;2023-11-21T15:25:39;8.20;99.90
43087;DHT22;28708;52.224;6.924;2023-11-21T15:28:04;8.20;99.90
43087;DHT22;28708;52.224;6.924;2023-11-21T15:30:31;8.20;99.90
43087;DHT22;28708;52.224;6.924;2023-11-21T15:32:58;8.20;99.90
43087;DHT22;28708;52.224;6.924;2023-11-21T15:35:24;8.20;99.90
43087;DHT22;28708;52.224;6.924;2023-11-21T15:37:49;8.10;99.90
43087;DHT22;28708;52.224;6.924;2023-11-21T15:40:15;8.10;99.90
43087;DHT22;28708;52.224;6.924;2023-11-21T15:42:42;8.10;99.90
43087;DHT22;28708;52.224;6.924;2023-11-21T15:45:08;8.10;99.90
43087;DHT22;28708;52.224;6.924;2023-11-21T15:47:34;8.10;99.90
43087;DHT22;28708;52.224;6.924;2023-11-21T15:50:01;8.10;99.90
43087;DHT22;28708;52.224;6.924;2023-11-21T15:52:26;8.10;99.90
43087;DHT22;28708;52.224;6.924;2023-11-21T15:54:54;8.10;99.90
43087;DHT22;28708;52.224;6.924;2023-11-21T15:57:19;8.10;99.90
43087;DHT22;28708;52.224;6.924;2023-11-21T15:59:47;8.00;99.90